sensor_id;sensor_type;location;lat;lon;timestamp;P1;durP1;ratioP1;P2;durP2;ratioP2
60973;SDS011;46846;51.528;5.076;2022-08-21T00:01:15;303.88;;;288.67;;
60973;SDS011;46846;51.528;5.076;2022-08-21T00:03:44;304.75;;;289.60;;
60973;SDS011;46846;51.528;5.076;2022-08-21T00:06:09;300.65;;;285.65;;
60973;SDS011;46846;51.528;5.076;2022-08-21T00:08:34;315.83;;;299.83;;
60973;SDS011;46846;51.528;5.076;2022-08-21T00:11:00;306.42;;;290.70;;
60973;SDS011;46846;51.528;5.076;2022-08-21T00:13:26;304.33;;;289.20;;
60973;SDS011;46846;51.528;5.076;2022-08-21T00:15:51;298.58;;;283.42;;
60973;SDS011;46846;51.528;5.076;2022-08-21T00:18:17;290.42;;;275.83;;
60973;SDS011;46846;51.528;5.076;2022-08-21T00:20:44;298.17;;;283.20;;
60973;SDS011;46846;51.528;5.076;2022-08-21T00:23:11;299.98;;;284.95;;
60973;SDS011;46846;51.528;5.076;2022-08-21T00:25:37;306.67;;;291.52;;
60973;SDS011;46846;51.528;5.076;2022-08-21T00:28:03;292.52;;;277.92;;
60973;SDS011;46846;51.528;5.076;2022-08-21T00:30:29;308.55;;;292.83;;
60973;SDS011;46846;51.528;5.076;2022-08-21T00:32:56;285.80;;;271.08;;
60973;SDS011;46846;51.528;5.076;2022-08-21T00:35:24;292.00;;;277.48;;
60973;SDS011;46846;51.528;5.076;2022-08-21T00:37:52;299.75;;;284.75;;
60973;SDS011;46846;51.528;5.076;2022-08-21T00:40:18;300.42;;;284.95;;
60973;SDS011;46846;51.528;5.076;2022-08-21T00:42:46;299.45;;;284.50;;
60973;SDS011;46846;51.528;5.076;2022-08-21T00:45:14;295.73;;;279.90;;
60973;SDS011;46846;51.528;5.076;2022-08-21T00:47:40;291.23;;;276.67;;
60973;SDS011;46846;51.528;5.076;2022-08-21T00:50:08;281.92;;;267.70;;
60973;SDS011;46846;51.528;5.076;2022-08-21T00:52:35;288.17;;;273.83;;
60973;SDS011;46846;51.528;5.076;2022-08-21T00:55:03;295.70;;;280.58;;
60973;SDS011;46846;51.528;5.076;2022-08-21T00:57:34;283.85;;;269.52;;
60973;SDS011;46846;51.528;5.076;2022-08-21T01:00:06;290.15;;;275.65;;
60973;SDS011;46846;51.528;5.076;2022-08-21T01:02:34;303.60;;;288.15;;
60973;SDS011;46846;51.528;5.076;2022-08-21T01:05:00;286.15;;;271.85;;
60973;SDS011;46846;51.528;5.076;2022-08-21T01:07:26;291.27;;;276.48;;
60973;SDS011;46846;51.528;5.076;2022-08-21T01:09:51;300.17;;;285.05;;
60973;SDS011;46846;51.528;5.076;2022-08-21T01:12:17;297.80;;;282.92;;
60973;SDS011;46846;51.528;5.076;2022-08-21T01:14:43;287.85;;;273.33;;
60973;SDS011;46846;51.528;5.076;2022-08-21T01:17:10;282.45;;;268.00;;
60973;SDS011;46846;51.528;5.076;2022-08-21T01:19:38;282.17;;;268.02;;
60973;SDS011;46846;51.528;5.076;2022-08-21T01:22:04;280.40;;;266.33;;
60973;SDS011;46846;51.528;5.076;2022-08-21T01:24:30;286.13;;;271.65;;
60973;SDS011;46846;51.528;5.076;2022-08-21T01:26:56;294.40;;;279.73;;
60973;SDS011;46846;51.528;5.076;2022-08-21T01:31:58;289.70;;;274.92;;
60973;SDS011;46846;51.528;5.076;2022-08-21T01:34:28;290.00;;;275.52;;
60973;SDS011;46846;51.528;5.076;2022-08-21T01:36:53;288.17;;;273.73;;
60973;SDS011;46846;51.528;5.076;2022-08-21T01:39:19;273.75;;;259.83;;
60973;SDS011;46846;51.528;5.076;2022-08-21T01:41:47;294.33;;;279.65;;
60973;SDS011;46846;51.528;5.076;2022-08-21T01:44:13;287.25;;;272.48;;
60973;SDS011;46846;51.528;5.076;2022-08-21T01:46:38;288.80;;;274.33;;
60973;SDS011;46846;51.528;5.076;2022-08-21T01:49:04;284.40;;;270.15;;
60973;SDS011;46846;51.528;5.076;2022-08-21T01:51:30;289.10;;;274.60;;
60973;SDS011;46846;51.528;5.076;2022-08-21T01:53:56;281.45;;;267.23;;
60973;SDS011;46846;51.528;5.076;2022-08-21T01:56:21;276.23;;;262.25;;
60973;SDS011;46846;51.528;5.076;2022-08-21T01:58:47;273.45;;;259.67;;
60973;SDS011;46846;51.528;5.076;2022-08-21T02:01:13;284.63;;;270.40;;
60973;SDS011;46846;51.528;5.076;2022-08-21T02:03:39;273.80;;;260.05;;
60973;SDS011;46846;51.528;5.076;2022-08-21T02:06:06;282.65;;;268.50;;
60973;SDS011;46846;51.528;5.076;2022-08-21T02:08:36;266.77;;;253.32;;
60973;SDS011;46846;51.528;5.076;2022-08-21T02:11:01;283.75;;;269.45;;
60973;SDS011;46846;51.528;5.076;2022-08-21T02:13:27;278.75;;;264.40;;
60973;SDS011;46846;51.528;5.076;2022-08-21T02:15:52;279.33;;;265.27;;
60973;SDS011;46846;51.528;5.076;2022-08-21T02:18:17;287.35;;;272.90;;
60973;SDS011;46846;51.528;5.076;2022-08-21T02:20:44;277.52;;;263.40;;
60973;SDS011;46846;51.528;5.076;2022-08-21T02:23:12;278.73;;;264.73;;
60973;SDS011;46846;51.528;5.076;2022-08-21T02:25:38;293.58;;;278.83;;
60973;SDS011;46846;51.528;5.076;2022-08-21T02:28:11;286.52;;;272.30;;
60973;SDS011;46846;51.528;5.076;2022-08-21T02:30:39;277.40;;;263.27;;
60973;SDS011;46846;51.528;5.076;2022-08-21T02:33:07;285.02;;;270.60;;
60973;SDS011;46846;51.528;5.076;2022-08-21T02:35:34;282.48;;;267.48;;
60973;SDS011;46846;51.528;5.076;2022-08-21T02:38:03;291.52;;;276.95;;
60973;SDS011;46846;51.528;5.076;2022-08-21T02:40:34;284.20;;;270.00;;
60973;SDS011;46846;51.528;5.076;2022-08-21T02:43:02;284.60;;;270.38;;
60973;SDS011;46846;51.528;5.076;2022-08-21T02:45:29;286.45;;;271.70;;
60973;SDS011;46846;51.528;5.076;2022-08-21T02:47:56;283.70;;;269.20;;
60973;SDS011;46846;51.528;5.076;2022-08-21T02:50:31;272.27;;;258.40;;
60973;SDS011;46846;51.528;5.076;2022-08-21T02:52:59;278.43;;;264.47;;
60973;SDS011;46846;51.528;5.076;2022-08-21T02:55:26;279.95;;;265.95;;
60973;SDS011;46846;51.528;5.076;2022-08-21T02:57:54;281.42;;;266.95;;
60973;SDS011;46846;51.528;5.076;2022-08-21T03:00:22;283.05;;;268.85;;
60973;SDS011;46846;51.528;5.076;2022-08-21T03:02:49;274.30;;;260.55;;
60973;SDS011;46846;51.528;5.076;2022-08-21T03:05:14;285.05;;;270.77;;
60973;SDS011;46846;51.528;5.076;2022-08-21T03:07:40;274.73;;;260.95;;
60973;SDS011;46846;51.528;5.076;2022-08-21T03:10:06;287.70;;;273.27;;
60973;SDS011;46846;51.528;5.076;2022-08-21T03:12:32;276.58;;;261.92;;
60973;SDS011;46846;51.528;5.076;2022-08-21T03:15:00;277.83;;;263.88;;
60973;SDS011;46846;51.528;5.076;2022-08-21T03:17:26;269.75;;;255.95;;
60973;SDS011;46846;51.528;5.076;2022-08-21T03:19:52;273.85;;;259.70;;
60973;SDS011;46846;51.528;5.076;2022-08-21T03:22:17;270.50;;;256.95;;
60973;SDS011;46846;51.528;5.076;2022-08-21T03:24:43;271.05;;;257.45;;
60973;SDS011;46846;51.528;5.076;2022-08-21T03:27:08;272.45;;;258.52;;
60973;SDS011;46846;51.528;5.076;2022-08-21T03:29:33;274.42;;;260.55;;
60973;SDS011;46846;51.528;5.076;2022-08-21T03:31:59;273.23;;;259.50;;
60973;SDS011;46846;51.528;5.076;2022-08-21T03:34:24;279.10;;;264.75;;
60973;SDS011;46846;51.528;5.076;2022-08-21T03:36:49;273.58;;;259.83;;
60973;SDS011;46846;51.528;5.076;2022-08-21T03:39:16;264.65;;;251.30;;
60973;SDS011;46846;51.528;5.076;2022-08-21T03:41:41;270.13;;;256.55;;
60973;SDS011;46846;51.528;5.076;2022-08-21T03:44:07;277.42;;;263.35;;
60973;SDS011;46846;51.528;5.076;2022-08-21T03:46:32;283.45;;;269.17;;
60973;SDS011;46846;51.528;5.076;2022-08-21T03:48:57;280.65;;;266.50;;
60973;SDS011;46846;51.528;5.076;2022-08-21T03:51:23;269.50;;;255.93;;
60973;SDS011;46846;51.528;5.076;2022-08-21T03:53:48;267.75;;;254.05;;
60973;SDS011;46846;51.528;5.076;2022-08-21T03:56:14;274.67;;;260.75;;
60973;SDS011;46846;51.528;5.076;2022-08-21T03:58:41;269.20;;;255.57;;
60973;SDS011;46846;51.528;5.076;2022-08-21T04:01:07;272.25;;;258.58;;
60973;SDS011;46846;51.528;5.076;2022-08-21T04:03:34;266.58;;;253.13;;
60973;SDS011;46846;51.528;5.076;2022-08-21T04:06:00;276.73;;;262.70;;
60973;SDS011;46846;51.528;5.076;2022-08-21T04:08:25;262.85;;;249.50;;
60973;SDS011;46846;51.528;5.076;2022-08-21T04:10:52;272.25;;;258.60;;
60973;SDS011;46846;51.528;5.076;2022-08-21T04:13:19;267.90;;;253.90;;
60973;SDS011;46846;51.528;5.076;2022-08-21T04:15:46;262.05;;;248.68;;
60973;SDS011;46846;51.528;5.076;2022-08-21T04:18:12;259.27;;;246.15;;
60973;SDS011;46846;51.528;5.076;2022-08-21T04:20:38;270.42;;;256.80;;
60973;SDS011;46846;51.528;5.076;2022-08-21T04:23:04;272.40;;;258.50;;
60973;SDS011;46846;51.528;5.076;2022-08-21T04:25:31;259.70;;;246.38;;
60973;SDS011;46846;51.528;5.076;2022-08-21T04:27:56;256.45;;;243.45;;
60973;SDS011;46846;51.528;5.076;2022-08-21T04:30:22;263.50;;;250.00;;
60973;SDS011;46846;51.528;5.076;2022-08-21T04:32:49;255.93;;;242.38;;
60973;SDS011;46846;51.528;5.076;2022-08-21T04:35:17;250.85;;;238.10;;
60973;SDS011;46846;51.528;5.076;2022-08-21T04:37:45;268.15;;;254.60;;
60973;SDS011;46846;51.528;5.076;2022-08-21T04:40:11;254.80;;;241.57;;
60973;SDS011;46846;51.528;5.076;2022-08-21T04:42:47;262.63;;;249.20;;
60973;SDS011;46846;51.528;5.076;2022-08-21T04:45:22;262.98;;;249.38;;
60973;SDS011;46846;51.528;5.076;2022-08-21T04:47:51;256.90;;;243.73;;
60973;SDS011;46846;51.528;5.076;2022-08-21T04:50:19;254.45;;;241.45;;
60973;SDS011;46846;51.528;5.076;2022-08-21T04:52:47;258.55;;;245.35;;
60973;SDS011;46846;51.528;5.076;2022-08-21T04:55:12;273.20;;;259.23;;
60973;SDS011;46846;51.528;5.076;2022-08-21T04:57:38;273.50;;;259.58;;
60973;SDS011;46846;51.528;5.076;2022-08-21T05:00:05;276.98;;;263.00;;
60973;SDS011;46846;51.528;5.076;2022-08-21T05:02:31;269.13;;;255.57;;
60973;SDS011;46846;51.528;5.076;2022-08-21T05:04:58;263.25;;;249.95;;
60973;SDS011;46846;51.528;5.076;2022-08-21T05:07:25;263.48;;;249.82;;
60973;SDS011;46846;51.528;5.076;2022-08-21T05:09:53;257.88;;;244.52;;
60973;SDS011;46846;51.528;5.076;2022-08-21T05:12:19;269.23;;;255.00;;
60973;SDS011;46846;51.528;5.076;2022-08-21T05:14:45;277.02;;;262.55;;
60973;SDS011;46846;51.528;5.076;2022-08-21T05:17:11;263.10;;;249.80;;
60973;SDS011;46846;51.528;5.076;2022-08-21T05:19:36;270.58;;;256.95;;
60973;SDS011;46846;51.528;5.076;2022-08-21T05:22:02;257.23;;;243.88;;
60973;SDS011;46846;51.528;5.076;2022-08-21T05:24:28;269.25;;;255.52;;
60973;SDS011;46846;51.528;5.076;2022-08-21T05:26:53;266.13;;;252.35;;
60973;SDS011;46846;51.528;5.076;2022-08-21T05:29:18;252.32;;;239.38;;
60973;SDS011;46846;51.528;5.076;2022-08-21T05:31:45;268.30;;;254.50;;
60973;SDS011;46846;51.528;5.076;2022-08-21T05:34:12;246.98;;;234.23;;
60973;SDS011;46846;51.528;5.076;2022-08-21T05:36:39;264.70;;;251.10;;
60973;SDS011;46846;51.528;5.076;2022-08-21T05:39:04;267.98;;;254.18;;
60973;SDS011;46846;51.528;5.076;2022-08-21T05:41:30;261.90;;;248.05;;
60973;SDS011;46846;51.528;5.076;2022-08-21T05:43:56;249.57;;;236.93;;
60973;SDS011;46846;51.528;5.076;2022-08-21T05:46:21;252.35;;;239.25;;
60973;SDS011;46846;51.528;5.076;2022-08-21T05:48:46;270.98;;;257.10;;
60973;SDS011;46846;51.528;5.076;2022-08-21T05:51:13;261.17;;;247.85;;
60973;SDS011;46846;51.528;5.076;2022-08-21T05:53:40;257.85;;;244.23;;
60973;SDS011;46846;51.528;5.076;2022-08-21T05:56:07;263.77;;;250.32;;
60973;SDS011;46846;51.528;5.076;2022-08-21T05:58:33;259.45;;;246.25;;
60973;SDS011;46846;51.528;5.076;2022-08-21T06:00:59;247.13;;;234.52;;
60973;SDS011;46846;51.528;5.076;2022-08-21T06:03:27;258.55;;;245.52;;
60973;SDS011;46846;51.528;5.076;2022-08-21T06:05:54;249.05;;;236.35;;
60973;SDS011;46846;51.528;5.076;2022-08-21T06:08:21;264.83;;;250.75;;
60973;SDS011;46846;51.528;5.076;2022-08-21T06:10:47;257.00;;;243.85;;
60973;SDS011;46846;51.528;5.076;2022-08-21T06:13:14;253.18;;;240.27;;
60973;SDS011;46846;51.528;5.076;2022-08-21T06:15:41;269.10;;;255.57;;
60973;SDS011;46846;51.528;5.076;2022-08-21T06:18:07;254.15;;;241.20;;
60973;SDS011;46846;51.528;5.076;2022-08-21T06:20:33;264.95;;;251.48;;
60973;SDS011;46846;51.528;5.076;2022-08-21T06:22:58;246.75;;;234.23;;
60973;SDS011;46846;51.528;5.076;2022-08-21T06:25:24;242.77;;;230.20;;
60973;SDS011;46846;51.528;5.076;2022-08-21T06:27:50;256.45;;;243.52;;
60973;SDS011;46846;51.528;5.076;2022-08-21T06:30:16;240.05;;;227.10;;
60973;SDS011;46846;51.528;5.076;2022-08-21T06:32:42;252.60;;;239.60;;
60973;SDS011;46846;51.528;5.076;2022-08-21T06:35:08;260.00;;;246.48;;
60973;SDS011;46846;51.528;5.076;2022-08-21T06:37:34;257.42;;;244.23;;
60973;SDS011;46846;51.528;5.076;2022-08-21T06:39:59;265.23;;;251.75;;
60973;SDS011;46846;51.528;5.076;2022-08-21T06:42:24;250.30;;;236.95;;
60973;SDS011;46846;51.528;5.076;2022-08-21T06:44:51;256.27;;;242.68;;
60973;SDS011;46846;51.528;5.076;2022-08-21T06:47:17;246.60;;;234.10;;
60973;SDS011;46846;51.528;5.076;2022-08-21T06:49:42;254.20;;;241.10;;
60973;SDS011;46846;51.528;5.076;2022-08-21T06:52:09;249.65;;;236.55;;
60973;SDS011;46846;51.528;5.076;2022-08-21T06:54:36;264.33;;;250.60;;
60973;SDS011;46846;51.528;5.076;2022-08-21T06:57:02;255.10;;;241.80;;
60973;SDS011;46846;51.528;5.076;2022-08-21T06:59:28;256.15;;;243.07;;
60973;SDS011;46846;51.528;5.076;2022-08-21T07:01:53;247.85;;;235.05;;
60973;SDS011;46846;51.528;5.076;2022-08-21T07:04:18;268.08;;;254.60;;
60973;SDS011;46846;51.528;5.076;2022-08-21T07:06:44;256.50;;;243.32;;
60973;SDS011;46846;51.528;5.076;2022-08-21T07:09:10;268.98;;;255.02;;
60973;SDS011;46846;51.528;5.076;2022-08-21T07:11:36;260.67;;;247.32;;
60973;SDS011;46846;51.528;5.076;2022-08-21T07:14:02;265.73;;;252.05;;
60973;SDS011;46846;51.528;5.076;2022-08-21T07:16:28;258.23;;;244.75;;
60973;SDS011;46846;51.528;5.076;2022-08-21T07:18:54;249.18;;;236.48;;
60973;SDS011;46846;51.528;5.076;2022-08-21T07:21:19;263.52;;;250.18;;
60973;SDS011;46846;51.528;5.076;2022-08-21T07:23:46;256.13;;;243.10;;
60973;SDS011;46846;51.528;5.076;2022-08-21T07:26:13;255.00;;;241.95;;
60973;SDS011;46846;51.528;5.076;2022-08-21T07:28:44;257.98;;;244.35;;
60973;SDS011;46846;51.528;5.076;2022-08-21T07:31:10;253.30;;;240.48;;
60973;SDS011;46846;51.528;5.076;2022-08-21T07:33:38;253.45;;;240.13;;
60973;SDS011;46846;51.528;5.076;2022-08-21T07:36:05;260.60;;;246.73;;
60973;SDS011;46846;51.528;5.076;2022-08-21T07:38:31;259.05;;;245.13;;
60973;SDS011;46846;51.528;5.076;2022-08-21T07:40:57;259.00;;;245.75;;
60973;SDS011;46846;51.528;5.076;2022-08-21T07:43:26;263.88;;;250.25;;
60973;SDS011;46846;51.528;5.076;2022-08-21T07:45:53;265.40;;;251.77;;
60973;SDS011;46846;51.528;5.076;2022-08-21T07:48:19;272.45;;;258.58;;
60973;SDS011;46846;51.528;5.076;2022-08-21T07:50:45;278.38;;;264.05;;
60973;SDS011;46846;51.528;5.076;2022-08-21T07:53:11;276.40;;;262.02;;
60973;SDS011;46846;51.528;5.076;2022-08-21T07:55:37;272.17;;;258.02;;
60973;SDS011;46846;51.528;5.076;2022-08-21T07:58:02;271.17;;;256.27;;
60973;SDS011;46846;51.528;5.076;2022-08-21T08:00:28;273.15;;;258.92;;
60973;SDS011;46846;51.528;5.076;2022-08-21T08:02:54;272.70;;;258.75;;
60973;SDS011;46846;51.528;5.076;2022-08-21T08:05:22;279.70;;;265.02;;
60973;SDS011;46846;51.528;5.076;2022-08-21T08:07:51;263.33;;;249.75;;
60973;SDS011;46846;51.528;5.076;2022-08-21T08:10:17;288.77;;;274.00;;
60973;SDS011;46846;51.528;5.076;2022-08-21T08:12:43;273.83;;;260.10;;
60973;SDS011;46846;51.528;5.076;2022-08-21T08:15:11;288.42;;;273.20;;
60973;SDS011;46846;51.528;5.076;2022-08-21T08:17:41;275.70;;;261.50;;
60973;SDS011;46846;51.528;5.076;2022-08-21T08:20:08;295.25;;;280.15;;
60973;SDS011;46846;51.528;5.076;2022-08-21T08:22:35;289.52;;;274.50;;
60973;SDS011;46846;51.528;5.076;2022-08-21T08:25:02;275.88;;;261.42;;
60973;SDS011;46846;51.528;5.076;2022-08-21T08:27:30;287.33;;;271.70;;
60973;SDS011;46846;51.528;5.076;2022-08-21T08:29:56;293.05;;;277.38;;
60973;SDS011;46846;51.528;5.076;2022-08-21T08:32:21;291.60;;;276.55;;
60973;SDS011;46846;51.528;5.076;2022-08-21T08:34:47;286.67;;;272.05;;
60973;SDS011;46846;51.528;5.076;2022-08-21T08:37:13;313.05;;;297.13;;
60973;SDS011;46846;51.528;5.076;2022-08-21T08:39:39;293.00;;;278.25;;
60973;SDS011;46846;51.528;5.076;2022-08-21T08:42:06;290.35;;;275.05;;
60973;SDS011;46846;51.528;5.076;2022-08-21T08:44:39;290.20;;;274.30;;
60973;SDS011;46846;51.528;5.076;2022-08-21T08:47:06;288.17;;;273.45;;
60973;SDS011;46846;51.528;5.076;2022-08-21T08:52:42;302.45;;;287.27;;
60973;SDS011;46846;51.528;5.076;2022-08-21T08:55:14;301.77;;;286.23;;
60973;SDS011;46846;51.528;5.076;2022-08-21T08:57:44;304.70;;;289.02;;
60973;SDS011;46846;51.528;5.076;2022-08-21T09:00:12;304.92;;;288.98;;
60973;SDS011;46846;51.528;5.076;2022-08-21T09:02:39;309.50;;;293.25;;
60973;SDS011;46846;51.528;5.076;2022-08-21T09:05:07;310.55;;;295.00;;
60973;SDS011;46846;51.528;5.076;2022-08-21T09:10:25;305.98;;;290.35;;
60973;SDS011;46846;51.528;5.076;2022-08-21T09:18:35;312.55;;;296.58;;
60973;SDS011;46846;51.528;5.076;2022-08-21T09:29:19;314.67;;;298.33;;
60973;SDS011;46846;51.528;5.076;2022-08-21T09:31:48;320.15;;;303.70;;
60973;SDS011;46846;51.528;5.076;2022-08-21T09:34:23;309.13;;;293.45;;
60973;SDS011;46846;51.528;5.076;2022-08-21T09:36:52;322.00;;;305.80;;
60973;SDS011;46846;51.528;5.076;2022-08-21T09:39:24;321.73;;;305.20;;
60973;SDS011;46846;51.528;5.076;2022-08-21T09:41:58;322.08;;;306.02;;
60973;SDS011;46846;51.528;5.076;2022-08-21T09:44:30;323.55;;;306.48;;
60973;SDS011;46846;51.528;5.076;2022-08-21T09:46:57;337.70;;;320.65;;
60973;SDS011;46846;51.528;5.076;2022-08-21T09:49:27;323.58;;;307.38;;
60973;SDS011;46846;51.528;5.076;2022-08-21T09:52:00;325.05;;;308.20;;
60973;SDS011;46846;51.528;5.076;2022-08-21T09:54:32;322.30;;;305.88;;
60973;SDS011;46846;51.528;5.076;2022-08-21T09:59:51;320.40;;;304.30;;
60973;SDS011;46846;51.528;5.076;2022-08-21T10:02:33;332.67;;;315.92;;
60973;SDS011;46846;51.528;5.076;2022-08-21T10:05:01;323.48;;;307.30;;
60973;SDS011;46846;51.528;5.076;2022-08-21T10:07:28;342.52;;;325.15;;
60973;SDS011;46846;51.528;5.076;2022-08-21T10:10:03;329.65;;;313.13;;
60973;SDS011;46846;51.528;5.076;2022-08-21T10:13:06;342.42;;;325.17;;
60973;SDS011;46846;51.528;5.076;2022-08-21T10:18:05;329.27;;;312.73;;
60973;SDS011;46846;51.528;5.076;2022-08-21T10:20:42;340.55;;;323.55;;
60973;SDS011;46846;51.528;5.076;2022-08-21T10:43:04;332.00;;;315.20;;
60973;SDS011;46846;51.528;5.076;2022-08-21T10:48:41;339.65;;;322.60;;
60973;SDS011;46846;51.528;5.076;2022-08-21T10:53:59;350.13;;;332.83;;
60973;SDS011;46846;51.528;5.076;2022-08-21T10:56:40;338.15;;;321.17;;
60973;SDS011;46846;51.528;5.076;2022-08-21T11:01:49;324.45;;;308.05;;
60973;SDS011;46846;51.528;5.076;2022-08-21T11:04:24;326.42;;;309.75;;
60973;SDS011;46846;51.528;5.076;2022-08-21T11:07:30;332.52;;;316.00;;
60973;SDS011;46846;51.528;5.076;2022-08-21T11:10:01;339.05;;;322.08;;
60973;SDS011;46846;51.528;5.076;2022-08-21T11:12:39;330.58;;;313.67;;
60973;SDS011;46846;51.528;5.076;2022-08-21T11:18:59;330.77;;;314.38;;
60973;SDS011;46846;51.528;5.076;2022-08-21T11:26:50;342.38;;;325.30;;
60973;SDS011;46846;51.528;5.076;2022-08-21T11:29:30;342.85;;;325.70;;
60973;SDS011;46846;51.528;5.076;2022-08-21T11:34:48;342.08;;;324.77;;
60973;SDS011;46846;51.528;5.076;2022-08-21T11:37:45;337.70;;;320.70;;
60973;SDS011;46846;51.528;5.076;2022-08-21T11:51:17;340.55;;;323.08;;
60973;SDS011;46846;51.528;5.076;2022-08-21T11:59:27;351.42;;;333.98;;
60973;SDS011;46846;51.528;5.076;2022-08-21T12:01:56;345.27;;;327.92;;
60973;SDS011;46846;51.528;5.076;2022-08-21T12:04:26;354.73;;;336.75;;
60973;SDS011;46846;51.528;5.076;2022-08-21T12:06:56;342.30;;;324.88;;
60973;SDS011;46846;51.528;5.076;2022-08-21T12:09:35;345.38;;;327.95;;
60973;SDS011;46846;51.528;5.076;2022-08-21T12:12:05;346.70;;;329.42;;
60973;SDS011;46846;51.528;5.076;2022-08-21T12:14:48;353.88;;;336.08;;
60973;SDS011;46846;51.528;5.076;2022-08-21T12:17:20;342.40;;;325.42;;
60973;SDS011;46846;51.528;5.076;2022-08-21T12:20:00;344.30;;;326.92;;
60973;SDS011;46846;51.528;5.076;2022-08-21T12:22:40;347.25;;;329.77;;
60973;SDS011;46846;51.528;5.076;2022-08-21T12:25:07;348.73;;;330.95;;
60973;SDS011;46846;51.528;5.076;2022-08-21T12:30:32;350.02;;;332.33;;
60973;SDS011;46846;51.528;5.076;2022-08-21T12:33:04;343.65;;;326.27;;
60973;SDS011;46846;51.528;5.076;2022-08-21T12:35:51;342.15;;;324.85;;
60973;SDS011;46846;51.528;5.076;2022-08-21T12:38:32;340.35;;;323.02;;
60973;SDS011;46846;51.528;5.076;2022-08-21T12:41:10;355.92;;;337.98;;
60973;SDS011;46846;51.528;5.076;2022-08-21T12:43:53;359.35;;;341.13;;
60973;SDS011;46846;51.528;5.076;2022-08-21T12:46:30;364.17;;;346.15;;
60973;SDS011;46846;51.528;5.076;2022-08-21T12:49:02;351.42;;;333.60;;
60973;SDS011;46846;51.528;5.076;2022-08-21T12:52:16;354.23;;;336.40;;
60973;SDS011;46846;51.528;5.076;2022-08-21T12:54:43;347.40;;;329.98;;
60973;SDS011;46846;51.528;5.076;2022-08-21T12:57:16;357.08;;;338.80;;
60973;SDS011;46846;51.528;5.076;2022-08-21T12:59:46;376.98;;;357.90;;
60973;SDS011;46846;51.528;5.076;2022-08-21T13:02:19;366.50;;;348.05;;
60973;SDS011;46846;51.528;5.076;2022-08-21T13:04:48;375.13;;;356.40;;
60973;SDS011;46846;51.528;5.076;2022-08-21T13:07:16;366.45;;;348.17;;
60973;SDS011;46846;51.528;5.076;2022-08-21T13:09:51;360.50;;;342.43;;
60973;SDS011;46846;51.528;5.076;2022-08-21T13:12:20;362.92;;;344.88;;
60973;SDS011;46846;51.528;5.076;2022-08-21T13:14:48;362.70;;;344.27;;
60973;SDS011;46846;51.528;5.076;2022-08-21T13:17:18;352.05;;;334.48;;
60973;SDS011;46846;51.528;5.076;2022-08-21T13:20:03;382.92;;;363.92;;
60973;SDS011;46846;51.528;5.076;2022-08-21T13:22:29;372.98;;;354.00;;
60973;SDS011;46846;51.528;5.076;2022-08-21T13:24:55;368.80;;;350.48;;
60973;SDS011;46846;51.528;5.076;2022-08-21T13:32:44;359.45;;;341.35;;
60973;SDS011;46846;51.528;5.076;2022-08-21T13:35:22;373.83;;;355.08;;
60973;SDS011;46846;51.528;5.076;2022-08-21T13:37:50;370.40;;;352.10;;
60973;SDS011;46846;51.528;5.076;2022-08-21T13:40:25;390.88;;;371.50;;
60973;SDS011;46846;51.528;5.076;2022-08-21T13:42:54;363.10;;;344.30;;
60973;SDS011;46846;51.528;5.076;2022-08-21T13:45:22;374.02;;;354.80;;
60973;SDS011;46846;51.528;5.076;2022-08-21T13:47:51;384.35;;;365.23;;
60973;SDS011;46846;51.528;5.076;2022-08-21T13:50:18;369.52;;;351.27;;
60973;SDS011;46846;51.528;5.076;2022-08-21T13:52:49;388.98;;;369.65;;
60973;SDS011;46846;51.528;5.076;2022-08-21T13:55:40;387.27;;;368.15;;
60973;SDS011;46846;51.528;5.076;2022-08-21T13:58:07;376.45;;;357.70;;
60973;SDS011;46846;51.528;5.076;2022-08-21T14:00:42;380.23;;;361.25;;
60973;SDS011;46846;51.528;5.076;2022-08-21T14:03:22;367.65;;;349.17;;
60973;SDS011;46846;51.528;5.076;2022-08-21T14:05:52;386.52;;;367.33;;
60973;SDS011;46846;51.528;5.076;2022-08-21T14:08:34;375.77;;;356.90;;
60973;SDS011;46846;51.528;5.076;2022-08-21T14:11:03;367.80;;;349.48;;
60973;SDS011;46846;51.528;5.076;2022-08-21T14:19:39;374.98;;;355.45;;
60973;SDS011;46846;51.528;5.076;2022-08-21T14:27:52;381.75;;;362.40;;
60973;SDS011;46846;51.528;5.076;2022-08-21T14:30:38;392.35;;;372.65;;
60973;SDS011;46846;51.528;5.076;2022-08-21T14:33:08;390.02;;;370.58;;
60973;SDS011;46846;51.528;5.076;2022-08-21T14:35:35;378.90;;;359.92;;
60973;SDS011;46846;51.528;5.076;2022-08-21T14:38:01;384.58;;;365.45;;
60973;SDS011;46846;51.528;5.076;2022-08-21T14:40:27;388.48;;;369.13;;
60973;SDS011;46846;51.528;5.076;2022-08-21T14:42:52;393.63;;;373.52;;
60973;SDS011;46846;51.528;5.076;2022-08-21T14:45:20;391.83;;;372.27;;
60973;SDS011;46846;51.528;5.076;2022-08-21T14:47:50;390.92;;;371.42;;
60973;SDS011;46846;51.528;5.076;2022-08-21T14:50:16;387.98;;;368.67;;
60973;SDS011;46846;51.528;5.076;2022-08-21T14:52:41;400.77;;;380.65;;
60973;SDS011;46846;51.528;5.076;2022-08-21T14:55:08;390.60;;;371.00;;
60973;SDS011;46846;51.528;5.076;2022-08-21T14:57:38;389.92;;;370.38;;
60973;SDS011;46846;51.528;5.076;2022-08-21T15:00:05;384.08;;;364.20;;
60973;SDS011;46846;51.528;5.076;2022-08-21T15:02:32;386.35;;;366.75;;
60973;SDS011;46846;51.528;5.076;2022-08-21T15:04:58;381.05;;;361.85;;
60973;SDS011;46846;51.528;5.076;2022-08-21T15:07:23;392.42;;;372.92;;
60973;SDS011;46846;51.528;5.076;2022-08-21T15:09:49;385.70;;;366.48;;
60973;SDS011;46846;51.528;5.076;2022-08-21T15:12:14;386.83;;;367.58;;
60973;SDS011;46846;51.528;5.076;2022-08-21T15:14:40;386.70;;;367.35;;
60973;SDS011;46846;51.528;5.076;2022-08-21T15:17:07;375.38;;;356.73;;
60973;SDS011;46846;51.528;5.076;2022-08-21T15:19:34;389.08;;;369.52;;
60973;SDS011;46846;51.528;5.076;2022-08-21T15:21:59;391.70;;;372.13;;
60973;SDS011;46846;51.528;5.076;2022-08-21T15:24:25;393.38;;;373.83;;
60973;SDS011;46846;51.528;5.076;2022-08-21T15:26:51;390.30;;;370.83;;
60973;SDS011;46846;51.528;5.076;2022-08-21T15:29:18;384.90;;;365.80;;
60973;SDS011;46846;51.528;5.076;2022-08-21T15:31:55;405.75;;;385.77;;
60973;SDS011;46846;51.528;5.076;2022-08-21T15:34:24;392.92;;;373.42;;
60973;SDS011;46846;51.528;5.076;2022-08-21T15:36:52;375.73;;;356.88;;
60973;SDS011;46846;51.528;5.076;2022-08-21T15:39:18;384.90;;;365.55;;
60973;SDS011;46846;51.528;5.076;2022-08-21T15:41:44;404.67;;;384.67;;
60973;SDS011;46846;51.528;5.076;2022-08-21T15:44:10;394.83;;;375.27;;
60973;SDS011;46846;51.528;5.076;2022-08-21T15:46:37;396.73;;;376.75;;
60973;SDS011;46846;51.528;5.076;2022-08-21T15:49:04;389.23;;;369.10;;